Time;durP1;ratioP1;P1;durP2;ratioP2;P2;SDS_P1;SDS_P2;PMS_P1;PMS_P2;Temp;Humidity;BMP_temperature;BMP_pressure;BME280_temperature;BME280_humidity;BME280_pressure;Samples;Min_cycle;Max_cycle;Signal;HPM_P1;HPM_P2
2020/12/22 00:01:42;;;;;;;2.80;2.60;;;7.70;99.90;;;;;;5075542;28;20400;-90
2020/12/22 00:04:10;;;;;;;5.35;2.95;;;7.80;99.90;;;;;;5075777;28;20388;-90
2020/12/22 00:06:37;;;;;;;2.80;2.60;;;7.90;99.90;;;;;;5076195;28;20374;-90
2020/12/22 00:09:04;;;;;;;2.60;2.40;;;7.90;99.90;;;;;;5075530;28;20393;-90
2020/12/22 00:11:32;;;;;;;2.50;2.30;;;7.90;99.90;;;;;;5076743;28;20537;-90
2020/12/22 00:13:59;;;;;;;2.30;2.17;;;7.90;99.90;;;;;;5075298;28;20411;-87
2020/12/22 00:16:33;;;;;;;2.20;2.10;;;7.90;99.90;;;;;;5075496;28;20404;-88
2020/12/22 00:19:01;;;;;;;2.42;1.98;;;8.00;99.90;;;;;;5076153;28;20381;-89
2020/12/22 00:21:33;;;;;;;1.73;1.63;;;8.00;99.90;;;;;;5075926;28;20428;-89
2020/12/22 00:24:01;;;;;;;1.80;1.70;;;8.00;99.90;;;;;;5077586;28;20397;-89
2020/12/22 00:26:30;;;;;;;1.73;1.63;;;8.00;99.90;;;;;;5089412;28;20499;-90
2020/12/22 00:28:58;;;;;;;1.90;1.80;;;8.00;99.90;;;;;;5076365;28;20378;-87
2020/12/22 00:31:25;;;;;;;1.80;1.70;;;7.90;99.90;;;;;;5075240;28;20404;-88
2020/12/22 00:33:52;;;;;;;2.25;2.13;;;7.80;99.90;;;;;;5075950;28;20382;-90
2020/12/22 00:36:20;;;;;;;1.50;1.50;;;7.70;99.90;;;;;;5075287;28;20396;-91
2020/12/22 00:38:47;;;;;;;1.05;1.05;;;7.70;99.90;;;;;;5075278;28;20064;-89
2020/12/22 00:41:15;;;;;;;1.55;1.45;;;7.60;99.90;;;;;;5075494;28;20370;-90
2020/12/22 00:43:42;;;;;;;1.60;1.50;;;7.70;99.90;;;;;;5075248;28;20080;-90
2020/12/22 00:46:14;;;;;;;1.40;1.40;;;7.60;99.90;;;;;;5074735;28;20385;-90
2020/12/22 00:48:47;;;;;;;1.48;1.40;;;7.60;99.90;;;;;;5075795;28;20364;-90
2020/12/22 00:51:21;;;;;;;1.30;1.20;;;7.70;99.90;;;;;;5075465;28;20439;-90
2020/12/22 00:53:49;;;;;;;1.15;1.10;;;7.70;99.90;;;;;;5076167;28;20559;-90
2020/12/22 00:56:17;;;;;;;1.50;1.40;;;7.70;99.90;;;;;;5075223;28;20366;-90
2020/12/22 00:58:47;;;;;;;1.10;1.10;;;7.70;99.90;;;;;;5075137;28;20431;-90
2020/12/22 01:01:15;;;;;;;0.90;0.90;;;7.80;99.90;;;;;;5074570;28;20469;-90
2020/12/22 01:03:43;;;;;;;1.20;1.10;;;7.80;99.90;;;;;;5077096;28;20400;-90
2020/12/22 01:06:15;;;;;;;1.30;1.20;;;7.90;99.90;;;;;;5074728;28;20381;-90
2020/12/22 01:08:43;;;;;;;1.42;1.20;;;8.00;99.90;;;;;;5075278;28;20404;-90
2020/12/22 01:11:11;;;;;;;0.88;0.88;;;8.00;99.90;;;;;;5074446;28;20511;-90
2020/12/22 01:13:38;;;;;;;0.82;0.82;;;8.00;99.90;;;;;;5074412;28;20484;-90
2020/12/22 01:16:06;;;;;;;1.20;1.10;;;8.10;99.90;;;;;;5074337;28;20461;-90
2020/12/22 01:18:44;;;;;;;0.88;0.88;;;8.10;99.90;;;;;;5074161;28;20123;-91
2020/12/22 01:21:18;;;;;;;0.60;0.60;;;8.10;99.90;;;;;;5074061;28;20392;-91
2020/12/22 01:23:45;;;;;;;0.68;0.68;;;8.10;99.90;;;;;;5074555;28;20389;-88
2020/12/22 01:26:17;;;;;;;0.70;0.70;;;8.10;99.90;;;;;;5073055;28;20393;-90
2020/12/22 01:28:44;;;;;;;0.70;0.70;;;8.30;99.90;;;;;;5074735;28;20401;-90
2020/12/22 01:31:11;;;;;;;0.52;0.52;;;8.30;99.90;;;;;;5074127;28;20468;-89
2020/12/22 01:33:38;;;;;;;0.82;0.82;;;8.30;99.90;;;;;;5074833;28;20378;-89
2020/12/22 01:36:06;;;;;;;0.73;0.73;;;8.30;99.90;;;;;;5074010;28;20469;-90
2020/12/22 01:38:33;;;;;;;0.60;0.60;;;8.30;99.90;;;;;;5074032;28;20102;-90
2020/12/22 01:41:00;;;;;;;1.02;0.50;;;8.30;99.90;;;;;;5075285;28;20368;-89
2020/12/22 01:43:27;;;;;;;0.65;0.65;;;8.30;99.90;;;;;;5073990;28;20370;-90
2020/12/22 01:45:54;;;;;;;1.95;0.57;;;8.30;99.90;;;;;;5073838;28;20076;-89
2020/12/22 01:48:21;;;;;;;0.30;0.30;;;8.30;99.90;;;;;;5074192;28;20358;-90
2020/12/22 01:50:48;;;;;;;0.22;0.22;;;8.30;99.90;;;;;;5073875;28;20515;-90
2020/12/22 01:53:15;;;;;;;0.30;0.30;;;8.30;99.90;;;;;;5073540;28;20412;-91
2020/12/22 01:55:42;;;;;;;0.60;0.60;;;8.30;99.90;;;;;;5074518;28;20378;-91
2020/12/22 01:58:09;;;;;;;0.30;0.30;;;8.30;99.90;;;;;;5074557;28;20468;-90
2020/12/22 02:00:37;;;;;;;0.85;0.35;;;8.40;99.90;;;;;;5074114;28;20404;-90
2020/12/22 02:03:07;;;;;;;0.20;0.20;;;8.30;99.90;;;;;;5073564;28;20047;-91
2020/12/22 02:05:40;;;;;;;0.32;0.32;;;8.30;99.90;;;;;;5074737;28;20384;-91
2020/12/22 02:08:06;;;;;;;0.20;0.20;;;8.40;99.90;;;;;;5075332;28;20373;-88
2020/12/22 02:10:33;;;;;;;0.40;0.40;;;8.40;99.90;;;;;;5073540;28;20366;-91
2020/12/22 02:13:00;;;;;;;0.20;0.10;;;8.50;99.90;;;;;;5073865;28;20464;-89
2020/12/22 02:15:28;;;;;;;0.20;0.20;;;8.50;99.90;;;;;;5073458;28;20389;-89
2020/12/22 02:17:54;;;;;;;0.20;0.20;;;8.50;99.90;;;;;;5074444;28;20041;-90
2020/12/22 02:20:24;;;;;;;0.25;0.10;;;8.50;99.90;;;;;;5073502;28;20548;-90
2020/12/22 02:22:51;;;;;;;0.20;0.20;;;8.60;99.90;;;;;;5074412;28;20397;-90
2020/12/22 02:25:18;;;;;;;0.75;0.30;;;8.60;99.90;;;;;;5073444;28;20044;-91
2020/12/22 02:27:46;;;;;;;0.30;0.30;;;8.60;99.90;;;;;;5073059;28;20423;-91
2020/12/22 02:30:13;;;;;;;0.20;0.20;;;8.60;99.90;;;;;;5073408;28;20090;-90
2020/12/22 02:32:40;;;;;;;0.17;0.17;;;8.70;99.90;;;;;;5073788;28;20349;-90
2020/12/22 02:35:07;;;;;;;0.50;0.25;;;8.70;99.90;;;;;;5073204;28;20455;-91
2020/12/22 02:37:35;;;;;;;0.20;0.20;;;8.70;99.90;;;;;;5076397;28;20064;-90
2020/12/22 02:40:02;;;;;;;0.15;0.15;;;8.70;99.90;;;;;;5092753;28;20392;-91
2020/12/22 02:42:30;;;;;;;0.22;0.22;;;8.60;99.90;;;;;;5079445;28;20384;-89
2020/12/22 02:44:57;;;;;;;0.20;0.20;;;8.60;99.90;;;;;;5077320;28;20401;-90
2020/12/22 02:47:24;;;;;;;0.30;0.30;;;8.50;99.90;;;;;;5077230;28;20059;-90
2020/12/22 02:49:51;;;;;;;0.20;0.20;;;8.50;99.90;;;;;;5078373;28;20548;-89
2020/12/22 02:52:19;;;;;;;1.00;0.20;;;8.40;99.90;;;;;;5077089;28;20477;-90
2020/12/22 02:54:45;;;;;;;0.55;0.20;;;8.30;99.90;;;;;;5078143;28;20389;-90
2020/12/22 02:57:12;;;;;;;0.13;0.13;;;8.30;99.90;;;;;;5077809;28;20400;-90
2020/12/22 02:59:40;;;;;;;1.05;0.20;;;8.40;99.90;;;;;;5076934;28;20396;-90
2020/12/22 03:02:07;;;;;;;0.20;0.20;;;8.40;99.90;;;;;;5076729;28;20472;-90
2020/12/22 03:04:33;;;;;;;0.10;0.10;;;8.40;99.90;;;;;;5076609;28;20392;-90
2020/12/22 03:07:01;;;;;;;0.52;0.20;;;8.40;99.90;;;;;;5077180;28;20385;-90
2020/12/22 03:09:28;;;;;;;0.22;0.20;;;8.40;99.90;;;;;;5077775;28;20036;-89
2020/12/22 03:11:55;;;;;;;0.13;0.13;;;8.50;99.90;;;;;;5076468;28;20526;-91
2020/12/22 03:14:22;;;;;;;0.10;0.10;;;8.50;99.90;;;;;;5077182;28;20384;-91
2020/12/22 03:16:49;;;;;;;0.00;0.00;;;8.50;99.90;;;;;;5076432;28;20396;-90
2020/12/22 03:19:16;;;;;;;0.00;0.00;;;8.60;99.90;;;;;;5077544;28;20403;-90
2020/12/22 03:21:43;;;;;;;0.10;0.10;;;8.60;99.90;;;;;;5076609;28;20096;-88
2020/12/22 03:24:10;;;;;;;0.20;0.20;;;8.60;99.90;;;;;;5077594;28;20393;-91
2020/12/22 03:26:37;;;;;;;0.00;0.00;;;8.60;99.90;;;;;;5076010;28;20396;-90
2020/12/22 03:29:05;;;;;;;0.17;0.00;;;8.70;99.90;;;;;;5076784;28;20385;-90
2020/12/22 03:31:32;;;;;;;0.08;0.08;;;8.60;99.90;;;;;;5076245;28;20382;-90
2020/12/22 03:33:59;;;;;;;0.75;0.10;;;8.70;99.90;;;;;;5077771;28;20389;-90
2020/12/22 03:36:26;;;;;;;0.32;0.10;;;8.70;99.90;;;;;;5077338;28;20094;-90
2020/12/22 03:38:53;;;;;;;1.35;0.10;;;8.80;99.90;;;;;;5077531;28;20435;-91
2020/12/22 03:41:21;;;;;;;0.03;0.03;;;8.90;99.90;;;;;;5076308;28;20393;-89
2020/12/22 03:43:48;;;;;;;0.10;0.00;;;8.90;99.90;;;;;;5076149;28;20397;-90
2020/12/22 03:46:15;;;;;;;0.10;0.10;;;9.00;99.90;;;;;;5076081;28;20469;-90
2020/12/22 03:48:42;;;;;;;0.00;0.00;;;9.00;99.90;;;;;;5075916;28;20515;-90
2020/12/22 03:51:10;;;;;;;0.30;0.10;;;9.10;99.90;;;;;;5075714;28;20461;-89
2020/12/22 03:53:37;;;;;;;0.00;0.00;;;9.10;99.90;;;;;;5075891;28;20108;-89
2020/12/22 03:56:06;;;;;;;0.10;0.00;;;9.10;99.90;;;;;;5076871;28;20474;-90
2020/12/22 03:58:33;;;;;;;0.28;0.10;;;9.10;99.90;;;;;;5075962;28;20503;-90
2020/12/22 04:01:00;;;;;;;0.57;0.05;;;9.10;99.90;;;;;;5075909;28;20363;-90
2020/12/22 04:03:30;;;;;;;0.13;0.00;;;9.10;99.90;;;;;;5077125;28;20481;-89
2020/12/22 04:05:56;;;;;;;0.00;0.00;;;9.00;99.90;;;;;;5075411;28;20386;-89
2020/12/22 04:08:23;;;;;;;0.65;0.03;;;9.00;99.90;;;;;;5075808;28;20392;-90
2020/12/22 04:10:50;;;;;;;0.10;0.08;;;9.00;99.90;;;;;;5077229;28;20389;-90
2020/12/22 04:13:17;;;;;;;0.05;0.03;;;8.90;99.90;;;;;;5077044;28;20415;-90
2020/12/22 04:15:44;;;;;;;0.57;0.10;;;8.80;99.90;;;;;;5075332;28;20471;-90
2020/12/22 04:18:11;;;;;;;0.10;0.10;;;8.70;99.90;;;;;;5075710;28;20473;-90
2020/12/22 04:20:40;;;;;;;0.20;0.20;;;8.70;99.90;;;;;;5076222;28;20452;-89
2020/12/22 04:23:07;;;;;;;0.60;0.20;;;8.80;99.90;;;;;;5075538;28;20460;-89
2020/12/22 04:25:34;;;;;;;0.10;0.10;;;8.70;99.90;;;;;;5076157;28;20408;-89
2020/12/22 04:28:01;;;;;;;0.45;0.10;;;8.70;99.90;;;;;;5075479;28;20051;-89
2020/12/22 04:30:28;;;;;;;0.00;0.00;;;8.80;99.90;;;;;;5076184;28;20071;-89
2020/12/22 04:32:55;;;;;;;0.00;0.00;;;8.80;99.90;;;;;;5076256;28;20456;-88
2020/12/22 04:35:22;;;;;;;0.10;0.10;;;8.90;99.90;;;;;;5075479;28;20514;-89
2020/12/22 04:37:52;;;;;;;0.40;0.20;;;9.00;99.90;;;;;;5074999;28;20392;-90
2020/12/22 04:40:19;;;;;;;0.03;0.03;;;8.90;99.90;;;;;;5075006;28;20457;-89
2020/12/22 04:42:49;;;;;;;1.13;0.25;;;9.00;99.90;;;;;;5075114;28;20090;-89
2020/12/22 04:45:17;;;;;;;0.10;0.10;;;8.90;99.90;;;;;;5074922;28;20424;-88
2020/12/22 04:47:46;;;;;;;0.05;0.05;;;9.10;99.90;;;;;;5075088;28;20378;-89
2020/12/22 04:50:15;;;;;;;0.08;0.00;;;9.10;99.90;;;;;;5074533;28;20483;-89
2020/12/22 04:52:44;;;;;;;0.00;0.00;;;9.10;99.90;;;;;;5091363;28;20393;-89
2020/12/22 04:55:11;;;;;;;0.00;0.00;;;9.20;99.90;;;;;;5078745;28;20376;-89
2020/12/22 04:57:49;;;;;;;0.10;0.10;;;9.10;99.90;;;;;;5075358;28;20432;-89
2020/12/22 05:00:18;;;;;;;0.20;0.00;;;9.10;99.90;;;;;;5075886;28;20376;-89
2020/12/22 05:02:48;;;;;;;0.00;0.00;;;9.10;99.90;;;;;;5075337;28;20392;-90
2020/12/22 05:05:15;;;;;;;0.10;0.10;;;9.10;99.90;;;;;;5075879;28;20370;-89
2020/12/22 05:07:43;;;;;;;0.13;0.08;;;9.10;99.90;;;;;;5074392;28;20055;-90
2020/12/22 05:10:12;;;;;;;0.35;0.13;;;9.20;99.90;;;;;;5075510;28;20510;-90
2020/12/22 05:12:40;;;;;;;1.98;0.20;;;9.10;99.90;;;;;;5074536;28;20464;-90
2020/12/22 05:15:10;;;;;;;0.90;0.20;;;9.10;99.90;;;;;;5075794;28;20432;-89
2020/12/22 05:17:45;;;;;;;0.00;0.00;;;9.10;99.90;;;;;;5075055;28;20477;-89
2020/12/22 05:20:16;;;;;;;0.00;0.00;;;9.20;99.90;;;;;;5074255;28;20373;-88
2020/12/22 05:22:45;;;;;;;0.10;0.00;;;9.30;99.90;;;;;;5074838;28;20381;-89
2020/12/22 05:25:17;;;;;;;0.68;0.25;;;9.30;99.90;;;;;;5074268;28;20369;-89
2020/12/22 05:27:47;;;;;;;1.33;0.28;;;9.40;99.90;;;;;;5074191;28;20396;-89
2020/12/22 05:30:16;;;;;;;0.00;0.00;;;9.40;99.90;;;;;;5074543;28;20358;-88
2020/12/22 05:32:48;;;;;;;0.35;0.10;;;9.50;99.90;;;;;;5074710;28;20380;-89
2020/12/22 05:35:16;;;;;;;1.00;0.50;;;9.50;99.90;;;;;;5074970;28;20449;-89
2020/12/22 05:37:46;;;;;;;1.10;0.30;;;9.50;99.90;;;;;;5074854;28;20393;-89
2020/12/22 05:40:14;;;;;;;0.00;0.00;;;9.50;99.90;;;;;;5075331;28;20426;-87
2020/12/22 05:42:42;;;;;;;0.05;0.05;;;9.60;99.90;;;;;;5074626;28;20056;-89
2020/12/22 05:45:09;;;;;;;0.68;0.17;;;9.70;99.90;;;;;;5074770;28;20074;-88
2020/12/22 05:47:36;;;;;;;0.32;0.00;;;9.80;99.90;;;;;;5074803;28;20397;-88
2020/12/22 05:50:04;;;;;;;0.10;0.10;;;9.90;99.90;;;;;;5074906;28;20488;-88
2020/12/22 05:52:31;;;;;;;0.10;0.10;;;9.90;99.90;;;;;;5074787;28;20374;-89
2020/12/22 05:54:59;;;;;;;0.00;0.00;;;9.90;99.90;;;;;;5073856;28;20427;-90
2020/12/22 05:57:30;;;;;;;0.00;0.00;;;10.00;99.90;;;;;;5074285;28;20392;-88
2020/12/22 06:00:01;;;;;;;0.25;0.10;;;10.10;99.90;;;;;;5075396;28;20047;-89
2020/12/22 06:02:30;;;;;;;0.00;0.00;;;10.10;99.90;;;;;;5075194;28;20461;-88
2020/12/22 06:05:00;;;;;;;0.00;0.00;;;10.10;99.90;;;;;;5074186;28;20441;-90
2020/12/22 06:07:30;;;;;;;0.00;0.00;;;10.10;99.90;;;;;;5074152;28;20383;-89
2020/12/22 06:09:57;;;;;;;0.20;0.13;;;10.10;99.90;;;;;;5073564;28;20393;-87
2020/12/22 06:12:25;;;;;;;0.00;0.00;;;10.10;99.90;;;;;;5073584;28;20384;-89
2020/12/22 06:14:55;;;;;;;0.00;0.00;;;10.20;99.90;;;;;;5074648;28;20396;-88
2020/12/22 06:17:22;;;;;;;0.00;0.00;;;10.20;99.90;;;;;;5074741;28;20040;-88
2020/12/22 06:19:50;;;;;;;0.00;0.00;;;10.20;99.90;;;;;;5074020;28;20392;-89
2020/12/22 06:22:18;;;;;;;1.27;0.10;;;10.20;99.90;;;;;;5074547;28;20370;-88
2020/12/22 06:24:52;;;;;;;0.22;0.10;;;10.10;99.90;;;;;;5073940;28;20431;-88
2020/12/22 06:27:19;;;;;;;0.30;0.30;;;10.10;99.90;;;;;;5073577;28;20918;-89
2020/12/22 06:29:47;;;;;;;0.00;0.00;;;10.10;99.90;;;;;;5073772;28;20384;-89
2020/12/22 06:32:16;;;;;;;0.50;0.20;;;10.00;99.90;;;;;;5074263;28;20048;-89
2020/12/22 06:34:44;;;;;;;0.43;0.00;;;9.90;99.90;;;;;;5073871;28;20361;-89
2020/12/22 06:37:11;;;;;;;0.43;0.10;;;9.90;99.90;;;;;;5073753;28;20396;-89
2020/12/22 06:39:51;;;;;;;0.63;0.08;;;10.00;99.90;;;;;;5074752;28;20068;-89
2020/12/22 06:42:30;;;;;;;0.15;0.15;;;10.10;99.90;;;;;;5074033;28;20461;-89
2020/12/22 06:45:26;;;;;;;0.10;0.03;;;10.20;99.90;;;;;;5073785;28;20492;-89
2020/12/22 06:47:59;;;;;;;0.28;0.28;;;10.20;99.90;;;;;;5074841;28;20036;-89
2020/12/22 06:50:47;;;;;;;1.30;0.10;;;10.30;99.90;;;;;;5074417;28;20392;-88
2020/12/22 06:53:41;;;;;;;0.00;0.00;;;10.30;99.90;;;;;;5074664;28;20477;-89
2020/12/22 06:56:08;;;;;;;0.60;0.30;;;10.30;99.90;;;;;;5074070;28;20381;-89
2020/12/22 06:58:36;;;;;;;0.17;0.13;;;10.40;99.90;;;;;;5074484;28;20488;-90
2020/12/22 07:01:45;;;;;;;0.05;0.05;;;10.40;99.90;;;;;;5073242;28;20395;-89
2020/12/22 07:04:20;;;;;;;0.20;0.15;;;10.40;99.90;;;;;;5032927;28;20426;-90
2020/12/22 07:06:52;;;;;;;0.40;0.38;;;10.40;99.90;;;;;;5081236;28;20025;-89
2020/12/22 07:09:35;;;;;;;1.52;1.38;;;10.50;99.90;;;;;;5080361;28;20376;-89
2020/12/22 07:12:08;;;;;;;0.07;0.07;;;10.50;99.90;;;;;;5074117;28;20500;-88
2020/12/22 07:14:40;;;;;;;0.00;0.00;;;10.50;99.90;;;;;;5074692;28;20368;-90
2020/12/22 07:17:12;;;;;;;0.00;0.00;;;10.70;99.90;;;;;;5073698;28;20056;-89
2020/12/22 07:19:43;;;;;;;0.00;0.00;;;10.90;99.90;;;;;;5073233;28;20396;-90
2020/12/22 07:22:12;;;;;;;0.00;0.00;;;10.90;99.90;;;;;;5074607;28;20388;-89
2020/12/22 07:24:39;;;;;;;0.52;0.00;;;11.00;99.90;;;;;;5075454;28;20381;-89
2020/12/22 07:27:08;;;;;;;0.10;0.10;;;11.10;99.90;;;;;;5077182;28;20401;-88
2020/12/22 07:29:41;;;;;;;0.55;0.00;;;11.10;99.90;;;;;;5078004;28;20489;-90
2020/12/22 07:32:09;;;;;;;;;;;11.20;99.90;;;;;;5078250;28;20408;-89
2020/12/22 07:34:36;;;;;;;0.10;0.00;;;11.10;99.90;;;;;;5077559;28;20265;-90
2020/12/22 07:37:06;;;;;;;0.10;0.10;;;11.10;99.90;;;;;;5077501;28;20058;-90
2020/12/22 07:39:37;;;;;;;0.10;0.00;;;11.10;99.90;;;;;;5077658;28;20457;-87
2020/12/22 07:42:18;;;;;;;0.38;0.00;;;11.00;99.90;;;;;;5076211;28;20401;-88
2020/12/22 07:44:47;;;;;;;0.00;0.00;;;11.10;99.90;;;;;;5077737;28;20405;-88
2020/12/22 07:47:14;;;;;;;0.00;0.00;;;11.10;99.90;;;;;;5076234;28;20392;-88
2020/12/22 07:49:42;;;;;;;0.57;0.10;;;11.10;99.90;;;;;;5077215;28;20384;-90
2020/12/22 07:52:18;;;;;;;1.75;0.10;;;11.10;99.90;;;;;;5076038;28;20499;-90
2020/12/22 07:54:57;;;;;;;1.42;0.30;;;11.10;99.90;;;;;;5077175;28;20366;-89
2020/12/22 07:57:26;;;;;;;0.00;0.00;;;11.20;99.90;;;;;;5076499;28;20393;-88
2020/12/22 08:00:02;;;;;;;0.32;0.30;;;11.30;99.90;;;;;;5076263;28;20389;-87
2020/12/22 08:02:29;;;;;;;0.75;0.75;;;11.30;99.90;;;;;;5077039;28;20059;-89
2020/12/22 08:04:56;;;;;;;0.08;0.08;;;11.40;99.90;;;;;;5076160;28;20479;-90
2020/12/22 08:07:23;;;;;;;0.50;0.50;;;11.50;99.90;;;;;;5076996;28;20048;-90
2020/12/22 08:09:50;;;;;;;0.03;0.03;;;11.50;99.90;;;;;;5076653;28;20377;-87
2020/12/22 08:12:17;;;;;;;0.10;0.00;;;11.50;99.90;;;;;;5075643;28;20369;-89
2020/12/22 08:14:45;;;;;;;1.40;0.38;;;11.60;99.90;;;;;;5075859;28;20392;-90
2020/12/22 08:17:17;;;;;;;0.10;0.10;;;11.60;99.90;;;;;;5076210;28;20471;-89
2020/12/22 08:19:44;;;;;;;0.65;0.10;;;11.60;99.90;;;;;;5076145;28;20385;-88
2020/12/22 08:22:16;;;;;;;0.10;0.10;;;11.60;99.90;;;;;;5076054;28;20457;-89
2020/12/22 08:24:44;;;;;;;0.00;0.00;;;11.60;99.90;;;;;;5076303;28;20445;-89
2020/12/22 08:27:12;;;;;;;0.00;0.00;;;11.60;99.90;;;;;;5076135;28;20358;-88
2020/12/22 08:29:42;;;;;;;0.03;0.00;;;11.70;99.90;;;;;;5076187;28;20384;-88
2020/12/22 08:32:09;;;;;;;0.60;0.10;;;11.80;99.90;;;;;;5076034;28;20384;-89
2020/12/22 08:34:36;;;;;;;0.55;0.10;;;11.90;99.90;;;;;;5075749;28;20461;-88
2020/12/22 08:37:10;;;;;;;0.03;0.03;;;11.90;99.90;;;;;;5076522;28;20452;-89
2020/12/22 08:39:43;;;;;;;0.32;0.10;;;12.00;99.90;;;;;;5076334;28;20461;-88
2020/12/22 08:42:11;;;;;;;0.13;0.10;;;12.00;99.90;;;;;;5076823;28;20385;-89
2020/12/22 08:44:51;;;;;;;0.75;0.20;;;12.00;99.90;;;;;;5075013;28;20412;-89
2020/12/22 08:47:20;;;;;;;0.50;0.05;;;12.10;99.90;;;;;;5074607;28;20048;-89
2020/12/22 08:49:48;;;;;;;0.73;0.10;;;12.10;99.90;;;;;;5074770;28;20396;-89
2020/12/22 08:52:17;;;;;;;0.10;0.10;;;12.10;99.90;;;;;;5075904;28;20411;-87
2020/12/22 08:54:48;;;;;;;0.10;0.10;;;12.00;99.90;;;;;;5075138;28;20468;-88
2020/12/22 08:57:17;;;;;;;0.10;0.10;;;11.90;99.90;;;;;;5074981;28;20392;-89
2020/12/22 08:59:47;;;;;;;0.50;0.15;;;11.90;99.90;;;;;;5075174;28;20373;-89
2020/12/22 09:02:30;;;;;;;0.10;0.10;;;11.90;99.90;;;;;;5074896;28;20388;-89
2020/12/22 09:05:09;;;;;;;0.40;0.32;;;11.90;99.90;;;;;;5074838;28;20369;-89
2020/12/22 09:07:36;;;;;;;0.63;0.38;;;11.90;99.90;;;;;;5074978;28;20350;-88
2020/12/22 09:10:07;;;;;;;0.20;0.10;;;12.00;99.90;;;;;;5075912;28;20055;-89
2020/12/22 09:12:34;;;;;;;0.20;0.20;;;12.10;99.90;;;;;;5076524;28;20381;-88
2020/12/22 09:15:03;;;;;;;1.80;0.45;;;12.20;99.90;;;;;;5074582;28;20037;-87
2020/12/22 09:17:34;;;;;;;1.05;0.00;;;12.30;99.90;;;;;;5074272;28;20446;-87
2020/12/22 09:20:06;;;;;;;0.00;0.00;;;12.40;99.90;;;;;;5074285;28;20404;-88
2020/12/22 09:22:34;;;;;;;0.20;0.20;;;12.50;99.90;;;;;;5088807;28;20048;-87
2020/12/22 09:25:05;;;;;;;0.35;0.35;;;12.50;99.90;;;;;;5074413;28;20401;-88
2020/12/22 09:27:37;;;;;;;0.75;0.20;;;12.60;99.90;;;;;;5073693;28;20469;-89
2020/12/22 09:30:14;;;;;;;0.30;0.30;;;12.60;99.90;;;;;;5074163;28;20436;-89
2020/12/22 09:32:43;;;;;;;0.38;0.10;;;12.70;99.90;;;;;;5074883;28;20346;-88
2020/12/22 09:35:10;;;;;;;0.43;0.05;;;12.70;99.90;;;;;;5074842;28;20052;-87
2020/12/22 09:37:37;;;;;;;0.17;0.10;;;12.70;99.90;;;;;;5074988;28;20458;-89
2020/12/22 09:40:04;;;;;;;0.03;0.03;;;12.60;99.90;;;;;;5075214;28;20495;-89
2020/12/22 09:42:32;;;;;;;2.38;0.20;;;12.60;99.90;;;;;;5074186;28;20448;-88
2020/12/22 09:44:59;;;;;;;0.20;0.20;;;12.60;99.90;;;;;;5075071;28;20481;-88
2020/12/22 09:47:26;;;;;;;0.20;0.20;;;12.80;99.90;;;;;;5074638;28;20369;-88
2020/12/22 09:49:53;;;;;;;0.00;0.00;;;12.90;99.90;;;;;;5073698;28;20370;-88
2020/12/22 09:52:20;;;;;;;0.10;0.10;;;13.00;99.90;;;;;;5074766;28;20404;-88
2020/12/22 09:54:49;;;;;;;0.28;0.10;;;13.10;99.90;;;;;;5074860;28;20412;-87
2020/12/22 09:57:16;;;;;;;1.00;0.20;;;13.00;99.90;;;;;;5073837;28;20392;-87
2020/12/22 09:59:43;;;;;;;1.77;0.25;;;12.80;99.90;;;;;;5074715;28;20373;-87
2020/12/22 10:02:10;;;;;;;0.60;0.20;;;12.80;99.90;;;;;;5074353;28;20045;-88
2020/12/22 10:04:39;;;;;;;0.43;0.20;;;12.70;99.90;;;;;;5073856;28;20465;-88
2020/12/22 10:07:06;;;;;;;0.20;0.00;;;12.70;99.90;;;;;;5073170;28;20412;-88
2020/12/22 10:09:33;;;;;;;0.10;0.10;;;12.70;99.90;;;;;;5073867;28;20044;-87
2020/12/22 10:12:00;;;;;;;0.10;0.10;;;12.70;99.90;;;;;;5073391;28;20400;-87
2020/12/22 10:14:27;;;;;;;1.55;0.00;;;12.70;99.90;;;;;;5073509;28;20385;-86
2020/12/22 10:16:54;;;;;;;2.38;0.25;;;12.80;99.90;;;;;;5073560;28;20037;-87
2020/12/22 10:19:21;;;;;;;0.20;0.17;;;12.80;99.90;;;;;;5074024;28;20358;-86
2020/12/22 10:21:48;;;;;;;0.20;0.20;;;12.80;99.90;;;;;;5074690;28;20384;-87
2020/12/22 10:24:33;;;;;;;0.13;0.13;;;12.90;99.90;;;;;;5073808;28;20459;-88
2020/12/22 10:27:00;;;;;;;0.03;0.03;;;12.90;99.90;;;;;;5073003;28;20397;-87
2020/12/22 10:29:27;;;;;;;0.60;0.10;;;12.90;99.90;;;;;;5073470;28;20070;-87
2020/12/22 10:31:55;;;;;;;1.67;0.10;;;12.90;99.90;;;;;;5073217;28;20448;-87
2020/12/22 10:34:23;;;;;;;0.85;0.03;;;12.80;99.90;;;;;;5073203;28;20400;-87
2020/12/22 10:36:56;;;;;;;0.30;0.10;;;12.80;99.90;;;;;;5073875;28;20427;-88
2020/12/22 10:39:23;;;;;;;0.20;0.20;;;12.80;99.90;;;;;;5073409;28;20402;-88
2020/12/22 10:41:50;;;;;;;0.25;0.20;;;12.80;99.90;;;;;;5073368;28;20044;-88
2020/12/22 10:44:17;;;;;;;1.85;0.38;;;12.90;99.90;;;;;;5073403;28;20370;-88
2020/12/22 10:46:48;;;;;;;0.60;0.38;;;12.90;99.90;;;;;;5074424;28;20395;-88
2020/12/22 10:49:15;;;;;;;1.58;0.40;;;12.90;99.90;;;;;;5073959;28;20365;-88
2020/12/22 10:51:42;;;;;;;0.47;0.47;;;13.00;99.90;;;;;;5074398;28;20468;-88
2020/12/22 10:54:09;;;;;;;0.47;0.30;;;13.10;99.90;;;;;;5073434;28;20412;-89
2020/12/22 10:56:36;;;;;;;0.95;0.30;;;13.20;99.90;;;;;;5073344;28;20405;-88
2020/12/22 10:59:03;;;;;;;0.32;0.32;;;13.30;99.90;;;;;;5073310;28;20389;-88
2020/12/22 11:01:30;;;;;;;1.13;0.38;;;13.40;99.90;;;;;;5077176;28;20183;-88
2020/12/22 11:03:57;;;;;;;1.70;0.50;;;13.40;99.90;;;;;;5078278;28;20048;-88
2020/12/22 11:07:00;;;;;;;0.73;0.40;;;13.40;99.90;;;;;;5077021;28;20040;-88
2020/12/22 11:09:17;;;;;;;0.10;0.10;;;13.40;99.90;;;;;;5076019;28;20400;-88
2020/12/22 11:11:46;;;;;;;0.10;0.10;;;13.30;99.90;;;;;;5077034;28;20432;-88
2020/12/22 11:14:17;;;;;;;0.15;0.15;;;13.20;99.90;;;;;;5076830;28;20381;-88
2020/12/22 11:16:46;;;;;;;0.95;0.30;;;13.10;99.90;;;;;;5077334;28;20453;-89
2020/12/22 11:19:13;;;;;;;0.00;0.00;;;13.20;99.90;;;;;;5076968;28;20041;-88
2020/12/22 11:21:43;;;;;;;0.10;0.10;;;13.20;99.90;;;;;;5078289;28;20397;-89
2020/12/22 11:24:10;;;;;;;0.10;0.10;;;13.20;99.90;;;;;;5077412;28;20350;-89
2020/12/22 11:26:37;;;;;;;1.35;0.30;;;13.20;99.90;;;;;;5076530;28;20465;-87
2020/12/22 11:29:04;;;;;;;0.30;0.17;;;13.20;99.90;;;;;;5077228;28;20476;-87
2020/12/22 11:31:32;;;;;;;1.83;0.10;;;13.10;99.90;;;;;;5076697;28;20446;-89
2020/12/22 11:33:59;;;;;;;0.00;0.00;;;13.20;99.90;;;;;;5076299;28;20071;-88
2020/12/22 11:36:26;;;;;;;0.10;0.10;;;13.30;99.90;;;;;;5089580;28;20048;-88
2020/12/22 11:38:53;;;;;;;0.45;0.30;;;13.50;99.90;;;;;;5083133;28;20416;-88
2020/12/22 11:41:21;;;;;;;0.82;0.35;;;13.50;99.90;;;;;;5076391;28;20102;-88
2020/12/22 11:43:49;;;;;;;1.58;0.32;;;13.50;99.90;;;;;;5077384;28;20480;-89
2020/12/22 11:46:17;;;;;;;0.22;0.10;;;13.50;99.90;;;;;;5076030;28;20412;-88
2020/12/22 11:48:44;;;;;;;0.30;0.30;;;13.50;99.90;;;;;;5076478;28;20472;-88
2020/12/22 11:51:15;;;;;;;0.82;0.68;;;13.70;99.90;;;;;;5076011;28;20412;-88
2020/12/22 11:53:43;;;;;;;0.40;0.40;;;13.90;99.90;;;;;;5076976;28;20431;-89
2020/12/22 11:56:10;;;;;;;0.70;0.30;;;14.00;99.90;;;;;;5076257;28;20044;-89
2020/12/22 11:58:37;;;;;;;0.10;0.10;;;14.00;99.90;;;;;;5076070;28;20378;-89
2020/12/22 12:01:04;;;;;;;0.93;0.20;;;14.00;99.90;;;;;;5076074;28;20400;-88
2020/12/22 12:03:31;;;;;;;0.20;0.20;;;13.90;99.90;;;;;;5077717;28;20380;-89
2020/12/22 12:05:58;;;;;;;0.20;0.20;;;13.90;99.90;;;;;;5075741;28;20432;-87
2020/12/22 12:08:25;;;;;;;1.58;0.20;;;13.80;99.90;;;;;;5076233;28;20376;-88
2020/12/22 12:10:52;;;;;;;0.43;0.38;;;13.60;99.90;;;;;;5075719;28;20385;-87
2020/12/22 12:13:19;;;;;;;0.30;0.30;;;13.40;99.90;;;;;;5076867;28;20047;-88
2020/12/22 12:15:46;;;;;;;0.13;0.10;;;13.20;99.90;;;;;;5075785;28;20395;-88
2020/12/22 12:18:13;;;;;;;4.45;0.40;;;13.10;99.90;;;;;;5076573;28;20101;-88
2020/12/22 12:20:40;;;;;;;1.00;0.90;;;13.00;99.90;;;;;;5075607;28;20388;-89
2020/12/22 12:23:07;;;;;;;1.65;0.50;;;12.90;99.90;;;;;;5075779;28;20044;-88
2020/12/22 12:25:51;;;;;;;0.47;0.47;;;12.80;99.90;;;;;;5076268;28;20386;-88
2020/12/22 12:28:18;;;;;;;2.10;2.00;;;12.70;99.90;;;;;;5075407;28;20507;-89
2020/12/22 12:30:45;;;;;;;1.90;1.80;;;12.70;99.90;;;;;;5076536;28;20052;-87
2020/12/22 12:33:12;;;;;;;1.88;1.75;;;12.60;99.90;;;;;;5075245;28;20378;-88
2020/12/22 12:35:40;;;;;;;7.47;6.78;;;12.70;99.90;;;;;;5075237;28;20401;-89
2020/12/22 12:38:07;;;;;;;1.42;1.00;;;12.80;99.90;;;;;;5075428;28;20374;-89
2020/12/22 12:40:34;;;;;;;4.10;3.90;;;12.90;99.90;;;;;;5076320;28;20044;-90
2020/12/22 12:43:02;;;;;;;2.10;2.00;;;13.00;99.90;;;;;;5075475;28;20507;-90
2020/12/22 12:45:30;;;;;;;6.18;1.80;;;13.00;99.90;;;;;;5075442;28;20451;-89
2020/12/22 12:47:57;;;;;;;2.13;1.75;;;13.00;99.90;;;;;;5075189;28;20044;-90
2020/12/22 12:50:24;;;;;;;1.38;1.27;;;13.00;99.90;;;;;;5076625;28;20389;-89
2020/12/22 12:52:51;;;;;;;3.35;1.05;;;13.00;99.90;;;;;;5075778;28;20385;-89
2020/12/22 12:55:29;;;;;;;0.57;0.57;;;13.00;99.90;;;;;;5075423;28;20049;-90
2020/12/22 12:57:56;;;;;;;0.70;0.60;;;13.00;99.90;;;;;;5075316;28;20066;-90
2020/12/22 13:00:23;;;;;;;0.47;0.47;;;13.00;99.90;;;;;;5074915;28;20507;-88
2020/12/22 13:02:50;;;;;;;1.20;1.10;;;12.90;99.90;;;;;;5075803;28;20464;-89